Mosby, MT

3:24 PM MST on February 05, 2016 (GMT -0700)
Union Creek | | Change Station
CLOSE
Current Station
Personal Weather Station
Location: Montana, MT
Elevation: 2910 ft
Nearby Weather Stations
Active Advisory: High Wind Warning

Elev 2910 ft 47.26 °N, 107.56 °W | Updated 14 minutes ago

Clear
Clear
45.7 °F
Feels Like 46 °F
N
3.0
Wind Variable Wind from West
Gusts 15.0 mph

Today
High -- | Low -- °F
--% Chance of Precip.
Yesterday
High -- | Low -- °F
Precip. -- in
Pressure 30.14 in
Visibility 10.0 miles
Clouds Clear
Windchill 46 °F
Dew Point 28 °F
Humidity 50%
Rainfall 0.00 in
Snow Depth Not available.
7:32 AM 5:19 PM
Waning Crescent, 9% visible
METAR KGGW 052153Z AUTO 23005KT 10SM CLR 03/M03 A3004 RMK AO2 SLP205 T00331028
Pressure 30.14 in
Visibility 10.0 miles
Clouds Clear
Windchill 46 °F
Dew Point 28 °F
Humidity 50%
Rainfall 0.00 in
Snow Depth Not available.
7:32 AM 5:19 PM
Waning Crescent, 9% visible
METAR KGGW 052153Z AUTO 23005KT 10SM CLR 03/M03 A3004 RMK AO2 SLP205 T00331028

10-Day Weather Forecast

Almanac

Astronomy

Feb. 05, 2016 Rise Set
Actual Time
Civil Twilight
Nautical Twilight
Astronomical Twilight
Moon
Length of Visible Light
Length of Day
Tomorrow will be .
, % of the Moon is Illuminated

Today's Extremes

State Highs State Lows

Community

WunderPhotos

Upload Photos

1,890,878 photos uploaded!

WunderBlog® & News

Nearby

Air Quality

  Air Quality AQ Index Pollutant
Not available.

Snow Depth

Station Depth Elevation

Earthquake Activity

City Distance Mag. Time & Date
Minimum magnitude displayed is 2.5.

Coastal Water Temperatures

Place Temperature

Stations

Nearby Weather Stations

Station Location Temp. Windchill Dew Point Humidity Wind Precip. Elev Updated Type
                   

Watches & Warnings

High Wind Warning
Issued: 2:34 PM MST Feb. 5, 2016 – National Weather Service

... High Wind Warning in effect from 5 am to 11 PM MST Saturday...

The National Weather Service in Glasgow has issued a High Wind
Warning... which is in effect from 5 am to 11 PM MST Saturday. The
high wind watch is no longer in effect.

* Winds... west at 30 to 40 mph. Gusts up to 65 mph.

* Timing... winds will begin increasing early Saturday morning
and continue through the day.

* Impacts... the strong winds may make travel difficult
especially for high profile vehicles on north-south oriented
roads.

Precautionary/preparedness actions...

A High Wind Warning means a hazardous high wind event is expected
or occurring. Sustained wind speeds of at least 40 mph or gusts
of 58 mph or more can lead to property damage.